createdAt,value
2022-12-15T00:02:28.579Z,67.57
2022-12-15T00:05:14.603Z,66.73
2022-12-15T00:08:03.692Z,67.06
2022-12-15T00:10:58.998Z,67.80
2022-12-15T00:14:10.310Z,68.52
2022-12-15T00:17:49.052Z,68.35
2022-12-15T00:20:50.118Z,68.39
2022-12-15T00:23:43.361Z,68.08
2022-12-15T00:26:38.757Z,68.47
2022-12-15T00:29:26.422Z,68.33
2022-12-15T00:32:12.903Z,68.72
2022-12-15T00:35:01.301Z,69.35
2022-12-15T00:37:47.978Z,69.16
2022-12-15T00:40:14.800Z,68.36
2022-12-15T00:42:41.693Z,68.65
2022-12-15T00:45:09.157Z,69.68
2022-12-15T00:47:48.963Z,67.65
2022-12-15T00:57:03.367Z,67.66
2022-12-15T00:59:49.230Z,68.52
2022-12-15T01:02:36.714Z,67.95
2022-12-15T01:05:31.004Z,67.48
2022-12-15T01:08:19.512Z,67.64
2022-12-15T01:11:05.123Z,67.74
2022-12-15T01:13:50.904Z,66.79
2022-12-15T01:19:48.016Z,66.48
2022-12-15T01:22:28.298Z,67.14
2022-12-15T01:24:55.184Z,66.63
2022-12-15T01:27:27.542Z,66.61
2022-12-15T01:29:56.824Z,67.15
2022-12-15T01:32:33.589Z,66.56
2022-12-15T01:35:04.868Z,66.21
2022-12-15T01:37:32.148Z,67.36
2022-12-15T01:40:28.062Z,66.85
2022-12-15T01:43:11.148Z,66.68
2022-12-15T01:45:51.920Z,66.56
2022-12-15T01:48:42.638Z,66.18
2022-12-15T01:51:12.941Z,66.41
2022-12-15T01:53:59.488Z,67.59
2022-12-15T01:56:32.545Z,66.42
2022-12-15T01:59:08.777Z,67.47
2022-12-15T02:01:36.224Z,67.49
2022-12-15T02:04:10.393Z,66.07
2022-12-15T02:06:48.462Z,65.79
2022-12-15T02:09:28.618Z,66.05
2022-12-15T02:12:36.421Z,66.07
2022-12-15T02:15:14.762Z,66.56
2022-12-15T02:18:18.301Z,67.58
2022-12-15T02:20:55.777Z,66.54
2022-12-15T02:23:52.490Z,68.00
2022-12-15T02:26:52.929Z,67.04
2022-12-15T02:29:33.138Z,67.36
2022-12-15T02:32:08.953Z,66.88
2022-12-15T02:34:45.926Z,68.91
2022-12-15T02:37:27.377Z,69.03
2022-12-15T02:39:54.633Z,70.12
2022-12-15T02:42:23.247Z,68.73
2022-12-15T02:45:12.385Z,69.02
2022-12-15T02:48:19.809Z,70.02
2022-12-15T02:51:25.421Z,70.64
2022-12-15T02:54:31.114Z,72.05
2022-12-15T02:57:28.527Z,70.70
2022-12-15T03:00:08.079Z,71.32
2022-12-15T03:02:43.149Z,71.77
2022-12-15T03:05:24.115Z,72.05
2022-12-15T03:07:58.647Z,73.07
2022-12-15T03:10:33.009Z,72.40
2022-12-15T03:13:05.897Z,71.65
2022-12-15T03:15:37.588Z,71.66
2022-12-15T03:18:12.694Z,72.99
2022-12-15T03:20:41.652Z,73.12
2022-12-15T03:23:13.065Z,73.00
2022-12-15T03:25:49.874Z,72.81
2022-12-15T03:28:17.666Z,72.42
2022-12-15T03:30:52.095Z,71.99
2022-12-15T03:33:20.782Z,72.77
2022-12-15T03:36:01.913Z,72.52
2022-12-15T03:38:34.871Z,73.83
2022-12-15T03:41:04.403Z,72.82
2022-12-15T03:43:41.927Z,72.42
2022-12-15T03:46:08.976Z,73.83
2022-12-15T03:48:48.447Z,73.97
2022-12-15T03:51:18.638Z,73.99
2022-12-15T03:53:52.021Z,74.29
2022-12-15T03:56:29.667Z,74.23
2022-12-15T03:59:03.184Z,74.04
2022-12-15T04:01:49.662Z,74.04
2022-12-15T04:04:20.469Z,74.72
2022-12-15T04:06:47.967Z,74.61
2022-12-15T04:09:24.050Z,74.47
2022-12-15T04:12:20.450Z,74.88
2022-12-15T04:14:59.131Z,75.17
2022-12-15T04:17:26.128Z,74.79
2022-12-15T04:20:13.722Z,74.55
2022-12-15T04:22:43.516Z,74.77
2022-12-15T04:25:37.206Z,74.34
2022-12-15T04:28:30.997Z,74.47
2022-12-15T04:31:32.319Z,75.42
2022-12-15T04:34:38.931Z,75.52
2022-12-15T04:37:30.886Z,75.22
2022-12-15T04:40:19.149Z,75.09
2022-12-15T04:43:12.403Z,75.72
2022-12-15T04:46:02.394Z,75.07
2022-12-15T04:48:49.953Z,74.66
2022-12-15T04:51:39.046Z,75.25
2022-12-15T04:54:25.384Z,75.68
2022-12-15T04:57:17.647Z,76.33
2022-12-15T05:00:03.167Z,76.27
2022-12-15T05:02:54.920Z,75.20
2022-12-15T05:05:49.104Z,75.67
2022-12-15T05:08:44.208Z,75.52
2022-12-15T05:11:32.990Z,75.70
2022-12-15T05:14:27.942Z,75.57
2022-12-15T05:17:13.944Z,75.07
2022-12-15T05:20:08.540Z,75.31
2022-12-15T05:23:03.493Z,75.64
2022-12-15T05:26:00.293Z,76.31
2022-12-15T05:31:55.059Z,76.27
2022-12-15T05:34:36.049Z,76.54
2022-12-15T05:37:04.473Z,76.66
2022-12-15T05:39:40.685Z,76.98
2022-12-15T05:42:12.108Z,76.57
2022-12-15T05:44:39.786Z,76.60
2022-12-15T05:47:15.215Z,77.61
2022-12-15T05:49:45.219Z,77.82
2022-12-15T05:52:22.429Z,77.36
2022-12-15T05:54:52.216Z,76.94
2022-12-15T05:57:25.305Z,76.93
2022-12-15T05:59:57.759Z,76.53
2022-12-15T06:02:41.461Z,76.62
2022-12-15T06:05:09.412Z,76.49
2022-12-15T06:07:39.911Z,76.53
2022-12-15T06:10:07.928Z,76.21
2022-12-15T06:12:44.213Z,76.12
2022-12-15T06:15:11.722Z,76.23
2022-12-15T06:17:44.540Z,75.99
2022-12-15T06:20:16.805Z,76.02
2022-12-15T06:22:49.583Z,76.74
2022-12-15T06:25:22.791Z,76.74
2022-12-15T06:28:01.603Z,77.03
2022-12-15T06:30:29.071Z,77.01
2022-12-15T06:33:14.492Z,77.45
2022-12-15T06:35:46.960Z,77.20
2022-12-15T06:38:14.236Z,76.94
2022-12-15T06:40:44.750Z,76.83
2022-12-15T06:43:17.250Z,76.19
2022-12-15T06:45:54.522Z,71.63
2022-12-15T06:48:30.373Z,71.90
2022-12-15T06:51:18.118Z,72.43
2022-12-15T06:53:58.194Z,70.94
2022-12-15T06:56:35.865Z,68.94
2022-12-15T06:59:09.536Z,68.14
2022-12-15T07:01:38.662Z,69.88
2022-12-15T07:04:12.232Z,68.12
2022-12-15T07:06:41.495Z,68.93
2022-12-15T07:09:14.131Z,68.34
2022-12-15T07:11:44.002Z,68.13
2022-12-15T07:14:14.052Z,67.89
2022-12-15T07:16:51.171Z,64.38
2022-12-15T07:19:24.380Z,65.56
2022-12-15T07:21:57.101Z,67.40
2022-12-15T07:24:24.169Z,69.00
2022-12-15T07:26:51.126Z,69.12
2022-12-15T07:29:28.063Z,67.47
2022-12-15T07:31:54.950Z,68.58
2022-12-15T07:34:22.987Z,70.11
2022-12-15T07:36:52.461Z,68.76
2022-12-15T07:39:19.994Z,69.89
2022-12-15T07:41:47.149Z,69.82
2022-12-15T07:44:15.433Z,70.05
2022-12-15T07:46:57.766Z,70.68
2022-12-15T07:49:33.776Z,69.36
2022-12-15T07:52:00.880Z,68.33
2022-12-15T07:54:27.750Z,65.43
2022-12-15T07:56:59.241Z,63.32
2022-12-15T07:59:26.699Z,61.63
2022-12-15T08:01:54.067Z,61.12
2022-12-15T08:04:21.161Z,65.41
2022-12-15T08:06:47.991Z,64.19
2022-12-15T08:09:15.300Z,61.14
2022-12-15T08:11:42.112Z,62.84
2022-12-15T08:14:15.291Z,64.38
2022-12-15T08:16:45.660Z,64.56
2022-12-15T08:19:23.609Z,65.23
2022-12-15T08:21:52.526Z,65.79
2022-12-15T08:24:33.929Z,65.45
2022-12-15T08:27:15.271Z,63.38
2022-12-15T08:29:58.505Z,63.72
2022-12-15T08:32:35.999Z,62.35
2022-12-15T08:35:31.898Z,62.47
2022-12-15T08:38:20.004Z,62.71
2022-12-15T08:41:10.209Z,61.65
2022-12-15T08:43:47.634Z,59.69
2022-12-15T08:46:16.374Z,60.16
2022-12-15T08:48:43.491Z,59.47
2022-12-15T08:51:10.589Z,59.61
2022-12-15T08:53:37.809Z,59.40
2022-12-15T08:56:09.852Z,58.13
2022-12-15T08:58:37.486Z,58.21
2022-12-15T09:01:07.608Z,57.73
2022-12-15T09:03:36.229Z,58.99
2022-12-15T09:06:08.665Z,58.04
2022-12-15T09:08:38.590Z,60.00
2022-12-15T09:11:09.607Z,59.39
2022-12-15T09:13:36.764Z,57.98
2022-12-15T09:16:10.408Z,57.50
2022-12-15T09:18:38.634Z,58.58
2022-12-15T09:21:07.789Z,58.86
2022-12-15T09:23:37.136Z,57.48
2022-12-15T09:26:11.608Z,57.72
2022-12-15T09:28:40.700Z,57.65
2022-12-15T09:31:10.408Z,57.71
2022-12-15T09:33:39.992Z,59.61
2022-12-15T09:36:08.552Z,62.33
2022-12-15T09:38:39.479Z,60.79
2022-12-15T09:41:28.260Z,60.63
2022-12-15T09:44:16.131Z,59.03
2022-12-15T09:47:01.304Z,59.49
2022-12-15T09:49:52.057Z,59.27
2022-12-15T09:52:43.007Z,56.72
2022-12-15T09:55:20.975Z,57.06
2022-12-15T09:57:57.413Z,56.89
2022-12-15T10:00:44.566Z,57.66
2022-12-15T10:03:17.824Z,57.03
2022-12-15T10:06:16.465Z,57.05
2022-12-15T10:09:03.634Z,56.14
2022-12-15T10:12:03.696Z,55.67
2022-12-15T10:15:29.568Z,55.52
2022-12-15T10:18:12.478Z,55.23
2022-12-15T10:20:48.524Z,55.39
2022-12-15T10:23:18.722Z,55.13
2022-12-15T10:26:24.432Z,54.92
2022-12-15T10:29:19.979Z,56.00
2022-12-15T10:32:27.915Z,55.35
2022-12-15T10:34:56.484Z,55.13
2022-12-15T10:37:28.781Z,54.87
2022-12-15T10:40:10.364Z,55.76
2022-12-15T10:42:57.263Z,53.94
2022-12-15T10:45:53.944Z,55.56
2022-12-15T10:48:22.126Z,54.83
2022-12-15T10:50:50.207Z,56.67
2022-12-15T10:53:42.508Z,55.30
2022-12-15T10:56:09.701Z,56.01
2022-12-15T10:58:50.156Z,55.83
2022-12-15T11:01:30.230Z,55.46
2022-12-15T11:03:59.268Z,54.79
2022-12-15T11:06:36.576Z,55.82
2022-12-15T11:09:40.561Z,55.75
2022-12-15T11:12:38.073Z,54.46
2022-12-15T11:15:27.978Z,57.19
2022-12-15T11:18:04.268Z,57.31
2022-12-15T11:20:41.500Z,55.99
2022-12-15T11:23:31.080Z,55.42
2022-12-15T11:26:07.517Z,55.04
2022-12-15T11:28:48.838Z,55.35
2022-12-15T11:31:25.063Z,54.65
2022-12-15T11:34:02.008Z,55.68
2022-12-15T11:37:19.090Z,55.72
2022-12-15T11:40:30.999Z,54.80
2022-12-15T11:43:22.240Z,55.31
2022-12-15T11:45:49.457Z,54.88
2022-12-15T11:48:24.801Z,55.19
2022-12-15T11:51:10.340Z,55.21
2022-12-15T11:54:03.584Z,54.87
2022-12-15T11:56:39.137Z,55.37
2022-12-15T12:00:13.103Z,56.12
2022-12-15T12:02:47.479Z,55.26
2022-12-15T12:05:49.023Z,56.10
2022-12-15T12:08:23.631Z,55.54
2022-12-15T12:11:23.543Z,55.11
2022-12-15T12:14:19.683Z,53.80
2022-12-15T12:17:17.119Z,55.05
2022-12-15T12:19:59.949Z,55.70
2022-12-15T12:22:40.991Z,55.55
2022-12-15T12:25:19.324Z,55.06
2022-12-15T12:27:53.305Z,55.13
2022-12-15T12:30:27.323Z,55.03
2022-12-15T12:33:22.344Z,54.93
2022-12-15T12:36:27.117Z,57.53
2022-12-15T12:42:42.602Z,56.92
2022-12-15T12:48:49.530Z,55.49
2022-12-15T12:51:44.611Z,55.49
2022-12-15T12:54:37.828Z,55.48
2022-12-15T12:57:14.382Z,55.90
2022-12-15T12:59:44.833Z,55.90
2022-12-15T13:08:56.119Z,56.50
2022-12-15T13:14:54.963Z,56.04
2022-12-15T13:17:34.310Z,55.73
2022-12-15T13:20:20.239Z,57.19
2022-12-15T13:22:47.313Z,57.31
2022-12-15T13:25:41.217Z,57.48
2022-12-15T13:28:43.310Z,60.41
2022-12-15T13:32:10.908Z,57.95
2022-12-15T13:34:44.628Z,58.74
2022-12-15T13:41:26.804Z,57.72
2022-12-15T13:43:54.541Z,59.16
2022-12-15T13:46:40.296Z,56.65
2022-12-15T13:49:25.627Z,57.48
2022-12-15T13:52:04.842Z,58.54
2022-12-15T13:54:46.959Z,58.62
2022-12-15T14:04:23.627Z,60.76
2022-12-15T14:06:50.881Z,59.89
2022-12-15T14:09:31.843Z,60.68
2022-12-15T14:12:02.393Z,58.99
2022-12-15T14:14:34.548Z,60.11
2022-12-15T14:17:06.820Z,61.58
2022-12-15T14:40:18.680Z,63.73
2022-12-15T14:42:56.925Z,61.23
2022-12-15T14:45:32.939Z,60.37
2022-12-15T14:48:40.606Z,59.74
2022-12-15T14:51:17.588Z,59.44
2022-12-15T14:53:53.167Z,58.49
2022-12-15T14:56:29.723Z,59.61
2022-12-15T14:59:21.211Z,59.98
2022-12-15T15:02:13.987Z,61.88
2022-12-15T15:04:47.314Z,60.29
2022-12-15T15:07:22.937Z,59.84
2022-12-15T15:09:53.427Z,59.35
2022-12-15T15:12:38.948Z,60.12
2022-12-15T15:15:15.051Z,62.77
2022-12-15T15:18:11.998Z,66.41
2022-12-15T15:20:56.956Z,65.01
2022-12-15T15:23:28.223Z,64.77
2022-12-15T15:26:12.809Z,61.18
2022-12-15T15:28:53.980Z,62.52
2022-12-15T15:34:53.013Z,68.42
2022-12-15T15:37:23.794Z,70.19
2022-12-15T15:39:59.918Z,65.53
2022-12-15T15:42:32.425Z,64.58
2022-12-15T15:44:59.684Z,68.67
2022-12-15T15:47:27.198Z,70.32
2022-12-15T15:50:11.878Z,71.56
2022-12-15T15:52:46.923Z,74.73
2022-12-15T15:55:16.577Z,76.89
2022-12-15T15:57:48.913Z,76.71
2022-12-15T16:00:30.825Z,76.74
2022-12-15T16:03:09.944Z,77.05
2022-12-15T16:05:39.634Z,78.06
2022-12-15T16:08:59.672Z,78.40
2022-12-15T16:11:34.033Z,79.62
2022-12-15T16:14:04.955Z,81.19
2022-12-15T16:16:34.812Z,81.70
2022-12-15T16:19:05.886Z,81.78
2022-12-15T16:21:37.530Z,81.26
2022-12-15T16:24:15.404Z,81.46
2022-12-15T16:26:49.538Z,82.05
2022-12-15T16:29:21.172Z,81.47
2022-12-15T16:31:53.633Z,81.62
2022-12-15T16:34:27.848Z,81.28
2022-12-15T16:36:54.858Z,81.28
2022-12-15T16:39:29.474Z,81.55
2022-12-15T16:41:56.740Z,81.77
2022-12-15T16:44:25.531Z,82.63
2022-12-15T16:46:55.624Z,82.72
2022-12-15T16:49:23.024Z,82.63
2022-12-15T16:51:59.658Z,82.88
2022-12-15T16:58:48.974Z,83.51
2022-12-15T17:01:27.555Z,84.08
2022-12-15T17:03:57.556Z,84.23
2022-12-15T17:06:30.621Z,84.03
2022-12-15T17:16:12.354Z,84.64
2022-12-15T17:18:40.702Z,84.54
2022-12-15T17:21:13.018Z,83.83
2022-12-15T17:23:45.356Z,82.34
2022-12-15T17:26:27.552Z,82.57
2022-12-15T17:29:54.198Z,82.52
2022-12-15T17:35:40.970Z,82.69
2022-12-15T17:38:17.549Z,81.55
2022-12-15T17:40:57.577Z,81.56
2022-12-15T17:43:41.229Z,81.20
2022-12-15T17:46:53.289Z,81.25
2022-12-15T17:49:21.916Z,81.51
2022-12-15T17:51:49.628Z,81.77
2022-12-15T17:54:19.297Z,81.66
2022-12-15T17:56:48.500Z,81.55
2022-12-15T17:59:20.799Z,81.07
2022-12-15T18:01:47.993Z,80.42
2022-12-15T18:04:15.680Z,81.62
2022-12-15T18:06:44.922Z,83.05
2022-12-15T18:09:17.721Z,83.34
2022-12-15T18:11:51.766Z,83.02
2022-12-15T18:14:39.516Z,83.38
2022-12-15T18:17:18.701Z,83.84
2022-12-15T18:20:12.016Z,83.57
2022-12-15T18:22:42.925Z,83.59
2022-12-15T18:25:27.058Z,84.36
2022-12-15T18:28:48.212Z,84.82
2022-12-15T18:31:41.485Z,84.79
2022-12-15T18:34:31.358Z,84.45
2022-12-15T18:37:39.161Z,83.64
2022-12-15T18:40:19.902Z,83.41
2022-12-15T18:43:09.105Z,83.48
2022-12-15T18:48:40.108Z,84.00
2022-12-15T18:51:43.091Z,83.37
2022-12-15T18:54:29.808Z,83.80
2022-12-15T18:57:07.971Z,84.46
2022-12-15T18:59:39.067Z,85.18
2022-12-15T19:02:13.992Z,85.73
2022-12-15T19:05:04.681Z,86.51
2022-12-15T19:07:33.245Z,86.13
2022-12-15T19:10:04.348Z,86.15
2022-12-15T19:12:39.174Z,85.68
2022-12-15T19:15:34.033Z,85.47
2022-12-15T19:18:46.331Z,84.07
2022-12-15T19:21:52.455Z,83.78
2022-12-15T19:24:52.147Z,84.58
2022-12-15T19:27:30.204Z,84.82
2022-12-15T19:30:14.889Z,85.16
2022-12-15T19:32:59.972Z,85.08
2022-12-15T19:35:35.606Z,85.17
2022-12-15T19:38:19.625Z,84.74
2022-12-15T19:40:54.811Z,84.31
2022-12-15T19:43:25.408Z,83.70
2022-12-15T19:45:54.488Z,84.33
2022-12-15T19:48:24.545Z,84.07
2022-12-15T19:51:06.561Z,83.67
2022-12-15T19:53:40.494Z,83.72
2022-12-15T19:56:30.141Z,82.69
2022-12-15T19:59:08.951Z,82.69
2022-12-15T20:01:40.472Z,83.18
2022-12-15T20:04:10.538Z,83.88
2022-12-15T20:06:41.844Z,82.95
2022-12-15T20:09:19.918Z,82.61
2022-12-15T20:11:59.471Z,82.66
2022-12-15T20:14:28.244Z,82.09
2022-12-15T20:16:58.632Z,81.82
2022-12-15T20:19:28.495Z,82.39
2022-12-15T20:22:02.691Z,82.32
2022-12-15T20:24:35.581Z,82.69
2022-12-15T20:27:07.308Z,82.80
2022-12-15T20:29:37.726Z,82.03
2022-12-15T20:32:14.173Z,80.65
2022-12-15T20:34:42.572Z,80.04
2022-12-15T20:37:23.877Z,80.99
2022-12-15T20:39:57.719Z,81.72
2022-12-15T20:42:27.229Z,81.54
2022-12-15T20:44:54.573Z,81.82
2022-12-15T20:47:29.244Z,82.24
2022-12-15T20:50:06.461Z,82.56
2022-12-15T20:52:36.357Z,82.34
2022-12-15T20:55:15.476Z,82.47
2022-12-15T20:57:43.083Z,82.29
2022-12-15T21:00:11.926Z,81.63
2022-12-15T21:02:46.510Z,81.39
2022-12-15T21:05:26.105Z,81.22
2022-12-15T21:07:57.291Z,81.83
2022-12-15T21:10:30.876Z,82.13
2022-12-15T21:12:57.962Z,81.51
2022-12-15T21:15:29.806Z,81.92
2022-12-15T21:18:46.617Z,81.72
2022-12-15T21:20:55.299Z,81.44
2022-12-15T21:23:39.748Z,82.05
2022-12-15T21:26:11.272Z,82.31
2022-12-15T21:28:44.345Z,83.06
2022-12-15T21:31:15.498Z,83.60
2022-12-15T21:33:52.196Z,83.92
2022-12-15T21:36:26.809Z,84.04
2022-12-15T21:39:00.866Z,83.65
2022-12-15T21:41:32.691Z,82.97
2022-12-15T21:44:00.472Z,82.87
2022-12-15T21:46:33.903Z,83.43
2022-12-15T21:49:22.652Z,83.21
2022-12-15T21:52:03.977Z,82.93
2022-12-15T21:54:36.355Z,83.26
2022-12-15T21:57:05.608Z,83.57
2022-12-15T21:59:41.601Z,83.33
2022-12-15T22:02:34.736Z,82.29
2022-12-15T22:05:03.686Z,82.14
2022-12-15T22:07:41.257Z,82.71
2022-12-15T22:10:08.583Z,82.28
2022-12-15T22:12:36.419Z,82.25
2022-12-15T22:15:24.508Z,81.58
2022-12-15T22:17:54.442Z,82.45
2022-12-15T22:20:25.978Z,83.72
2022-12-15T22:22:53.634Z,83.43
2022-12-15T22:25:30.306Z,83.58
2022-12-15T22:27:58.008Z,83.78
2022-12-15T22:30:29.819Z,83.54
2022-12-15T22:32:56.909Z,83.33
2022-12-15T22:35:26.921Z,83.76
2022-12-15T22:37:56.525Z,83.20
2022-12-15T22:40:27.909Z,82.07
2022-12-15T22:43:00.438Z,82.35
2022-12-15T22:45:27.845Z,82.44
2022-12-15T22:48:11.600Z,82.05
2022-12-15T22:50:39.524Z,81.28
2022-12-15T22:53:20.731Z,81.22
2022-12-15T22:55:52.208Z,81.49
2022-12-15T22:58:41.393Z,82.07
2022-12-15T23:01:12.660Z,82.78
2022-12-15T23:03:44.542Z,83.13
2022-12-15T23:06:11.820Z,83.25
2022-12-15T23:08:38.878Z,83.58
2022-12-15T23:11:26.911Z,83.67
2022-12-15T23:13:59.232Z,83.93
2022-12-15T23:16:34.501Z,83.81
2022-12-15T23:19:03.884Z,83.28
2022-12-15T23:21:33.942Z,82.97
2022-12-15T23:24:01.255Z,82.97
2022-12-15T23:26:32.887Z,82.42
2022-12-15T23:29:07.101Z,82.34
2022-12-15T23:31:41.166Z,80.92
2022-12-15T23:34:10.951Z,81.73
2022-12-15T23:36:37.849Z,81.42
2022-12-15T23:39:07.430Z,81.46
2022-12-15T23:41:35.733Z,81.58
2022-12-15T23:44:02.637Z,81.95
2022-12-15T23:46:32.762Z,82.11
2022-12-15T23:49:00.197Z,82.16
2022-12-15T23:51:27.175Z,82.77
2022-12-15T23:53:56.236Z,81.75
2022-12-15T23:56:24.682Z,79.84
2022-12-15T23:59:00.260Z,79.48
